createdAt,value
2023-05-02T00:00:14.053Z,12.13
2023-05-02T00:00:46.700Z,12.10
2023-05-02T00:01:19.366Z,12.10
2023-05-02T00:01:52.153Z,12.10
2023-05-02T00:02:24.921Z,12.10
2023-05-02T00:02:57.758Z,12.10
2023-05-02T00:03:30.577Z,12.09
2023-05-02T00:04:03.538Z,12.05
2023-05-02T00:04:36.381Z,12.07
2023-05-02T00:05:09.167Z,12.05
2023-05-02T00:05:41.836Z,12.07
2023-05-02T00:06:14.589Z,12.04
2023-05-02T00:06:47.390Z,12.02
2023-05-02T00:07:20.043Z,12.02
2023-05-02T00:07:52.719Z,12.04
2023-05-02T00:08:25.379Z,12.04
2023-05-02T00:08:58.045Z,12.04
2023-05-02T00:09:30.716Z,12.01
2023-05-02T00:10:03.402Z,12.01
2023-05-02T00:10:36.052Z,11.99
2023-05-02T00:11:08.737Z,11.99
2023-05-02T00:11:41.401Z,11.98
2023-05-02T00:12:14.068Z,11.98
2023-05-02T00:12:46.736Z,11.95
2023-05-02T00:13:19.400Z,11.94
2023-05-02T00:13:52.079Z,11.94
2023-05-02T00:14:24.754Z,11.90
2023-05-02T00:14:57.448Z,11.90
2023-05-02T00:15:30.139Z,11.88
2023-05-02T00:16:02.795Z,11.86
2023-05-02T00:16:35.485Z,11.85
2023-05-02T00:17:08.230Z,11.82
2023-05-02T00:17:41.030Z,11.82
2023-05-02T00:18:13.719Z,11.79
2023-05-02T00:18:46.372Z,11.79
2023-05-02T00:19:19.040Z,11.79
2023-05-02T00:19:51.746Z,11.79
2023-05-02T00:20:24.430Z,11.78
2023-05-02T00:20:57.088Z,11.78
2023-05-02T00:21:29.744Z,11.75
2023-05-02T00:22:02.421Z,11.73
2023-05-02T00:22:35.083Z,11.72
2023-05-02T00:23:07.752Z,11.70
2023-05-02T00:23:40.436Z,11.67
2023-05-02T00:24:13.107Z,11.64
2023-05-02T00:24:45.792Z,11.65
2023-05-02T00:25:18.460Z,11.61
2023-05-02T00:25:51.144Z,11.60
2023-05-02T00:26:23.792Z,11.57
2023-05-02T00:26:56.451Z,11.57
2023-05-02T00:27:29.123Z,11.55
2023-05-02T00:28:01.801Z,11.54
2023-05-02T00:28:32.873Z,11.52
2023-05-02T00:29:05.547Z,11.49
2023-05-02T00:29:38.226Z,11.46
2023-05-02T00:30:10.924Z,11.43
2023-05-02T00:30:43.629Z,11.43
2023-05-02T00:31:16.289Z,11.42
2023-05-02T00:31:48.966Z,11.40
2023-05-02T00:32:21.667Z,11.39
2023-05-02T00:32:54.477Z,11.36
2023-05-02T00:33:27.141Z,11.37
2023-05-02T00:33:59.810Z,11.33
2023-05-02T00:34:32.512Z,11.35
2023-05-02T00:35:05.168Z,11.33
2023-05-02T00:35:37.836Z,11.32
2023-05-02T00:36:10.498Z,11.32
2023-05-02T00:36:43.171Z,11.29
2023-05-02T00:37:15.840Z,11.28
2023-05-02T00:37:48.529Z,11.25
2023-05-02T00:38:21.204Z,11.25
2023-05-02T00:38:53.892Z,11.24
2023-05-02T00:39:26.564Z,11.22
2023-05-02T00:39:59.549Z,11.22
2023-05-02T00:40:25.852Z,11.22
2023-05-02T00:40:58.572Z,11.21
2023-05-02T00:41:31.229Z,11.18
2023-05-02T00:42:03.894Z,11.18
2023-05-02T00:42:36.826Z,11.15
2023-05-02T00:43:09.460Z,11.14
2023-05-02T00:43:42.133Z,11.15
2023-05-02T00:44:14.811Z,11.14
2023-05-02T00:44:47.484Z,11.11
2023-05-02T00:45:20.143Z,11.10
2023-05-02T00:45:52.836Z,11.10
2023-05-02T00:46:25.500Z,11.11
2023-05-02T00:46:58.230Z,11.10
2023-05-02T00:47:30.938Z,11.10
2023-05-02T00:48:03.649Z,11.11
2023-05-02T00:48:36.291Z,11.14
2023-05-02T00:49:08.969Z,11.14
2023-05-02T00:49:41.645Z,11.14
2023-05-02T00:50:14.339Z,11.14
2023-05-02T00:50:47.007Z,11.18
2023-05-02T00:51:19.683Z,11.15
2023-05-02T00:51:52.340Z,11.18
2023-05-02T00:52:25.007Z,11.17
2023-05-02T00:52:57.673Z,11.15
2023-05-02T00:53:30.335Z,11.17
2023-05-02T00:54:02.997Z,11.18
2023-05-02T00:54:35.667Z,11.17
2023-05-02T00:55:08.357Z,11.17
2023-05-02T00:55:41.065Z,11.17
2023-05-02T00:56:13.736Z,11.15
2023-05-02T00:56:46.423Z,11.15
2023-05-02T00:57:19.097Z,11.14
2023-05-02T00:57:51.778Z,11.15
2023-05-02T00:58:24.423Z,11.14
2023-05-02T00:58:57.082Z,11.14
2023-05-02T00:59:29.757Z,11.14
2023-05-02T01:00:02.609Z,11.11
2023-05-02T01:00:35.300Z,11.11
2023-05-02T01:01:08.027Z,11.10
2023-05-02T01:01:40.732Z,11.09
2023-05-02T01:02:13.591Z,11.09
2023-05-02T01:02:46.330Z,11.09
2023-05-02T01:03:19.137Z,11.07
2023-05-02T01:03:52.062Z,11.09
2023-05-02T01:04:24.829Z,11.10
2023-05-02T01:04:57.496Z,11.10
2023-05-02T01:05:30.161Z,11.10
2023-05-02T01:06:02.894Z,11.14
2023-05-02T01:06:35.601Z,11.15
2023-05-02T01:07:08.295Z,11.17
2023-05-02T01:07:40.964Z,11.15
2023-05-02T01:08:13.635Z,11.18
2023-05-02T01:08:46.322Z,11.19
2023-05-02T01:09:19.000Z,11.19
2023-05-02T01:09:51.719Z,11.18
2023-05-02T01:10:24.388Z,11.19
2023-05-02T01:10:57.041Z,11.21
2023-05-02T01:11:29.725Z,11.19
2023-05-02T01:12:02.392Z,11.19
2023-05-02T01:12:35.057Z,11.19
2023-05-02T01:13:07.722Z,11.21
2023-05-02T01:13:40.387Z,11.19
2023-05-02T01:14:13.078Z,11.19
2023-05-02T01:14:45.747Z,11.22
2023-05-02T01:15:18.404Z,11.21
2023-05-02T01:15:51.094Z,11.22
2023-05-02T01:16:23.797Z,11.22
2023-05-02T01:16:56.492Z,11.22
2023-05-02T01:17:29.245Z,11.21
2023-05-02T01:18:01.975Z,11.24
2023-05-02T01:18:34.640Z,11.22
2023-05-02T01:19:07.310Z,11.25
2023-05-02T01:19:39.987Z,11.25
2023-05-02T01:20:12.676Z,11.27
2023-05-02T01:20:45.347Z,11.28
2023-05-02T01:21:18.039Z,11.28
2023-05-02T01:21:50.690Z,11.28
2023-05-02T01:22:23.365Z,11.29
2023-05-02T01:22:56.029Z,11.29
2023-05-02T01:23:28.697Z,11.29
2023-05-02T01:24:01.358Z,11.32
2023-05-02T01:24:34.042Z,11.33
2023-05-02T01:25:06.749Z,11.35
2023-05-02T01:25:39.404Z,11.35
2023-05-02T01:26:12.061Z,11.35
2023-05-02T01:26:44.729Z,11.33
2023-05-02T01:27:17.396Z,11.35
2023-05-02T01:27:50.060Z,11.36
2023-05-02T01:28:22.752Z,11.35
2023-05-02T01:28:55.395Z,11.36
2023-05-02T01:29:28.065Z,11.36
2023-05-02T01:30:01.046Z,11.35
2023-05-02T01:30:27.302Z,11.36
2023-05-02T01:30:58.405Z,11.39
2023-05-02T01:31:31.153Z,11.39
2023-05-02T01:32:03.921Z,11.40
2023-05-02T01:32:36.677Z,11.39
2023-05-02T01:33:09.409Z,11.39
2023-05-02T01:33:42.078Z,11.42
2023-05-02T01:34:14.743Z,11.43
2023-05-02T01:34:47.426Z,11.42
2023-05-02T01:35:20.108Z,11.44
2023-05-02T01:35:52.764Z,11.46
2023-05-02T01:36:25.419Z,11.44
2023-05-02T01:36:58.100Z,11.46
2023-05-02T01:37:30.765Z,11.46
2023-05-02T01:38:03.438Z,11.46
2023-05-02T01:38:36.129Z,11.49
2023-05-02T01:39:08.800Z,11.49
2023-05-02T01:39:41.475Z,11.51
2023-05-02T01:40:14.157Z,11.51
2023-05-02T01:40:46.844Z,11.51
2023-05-02T01:41:19.496Z,11.51
2023-05-02T01:41:52.193Z,11.51
2023-05-02T01:42:24.836Z,11.49
2023-05-02T01:42:57.491Z,11.52
2023-05-02T01:43:30.158Z,11.54
2023-05-02T01:44:02.843Z,11.52
2023-05-02T01:44:35.504Z,11.54
2023-05-02T01:45:08.222Z,11.54
2023-05-02T01:45:40.877Z,11.55
2023-05-02T01:46:13.674Z,11.55
2023-05-02T01:46:46.512Z,11.57
2023-05-02T01:47:19.319Z,11.57
2023-05-02T01:47:51.998Z,11.58
2023-05-02T01:48:24.664Z,11.58
2023-05-02T01:48:57.331Z,11.60
2023-05-02T01:49:30.016Z,11.61
2023-05-02T01:50:02.770Z,11.60
2023-05-02T01:50:35.443Z,11.60
2023-05-02T01:51:08.115Z,11.60
2023-05-02T01:51:40.771Z,11.60
2023-05-02T01:52:13.438Z,11.58
2023-05-02T01:52:46.118Z,11.58
2023-05-02T01:53:18.791Z,11.61
2023-05-02T01:53:51.457Z,11.60
2023-05-02T01:54:24.124Z,11.60
2023-05-02T01:54:56.810Z,11.61
2023-05-02T01:55:29.479Z,11.60
2023-05-02T01:56:02.151Z,11.58
2023-05-02T01:56:34.837Z,11.60
2023-05-02T01:57:07.501Z,11.58
2023-05-02T01:57:40.167Z,11.58
2023-05-02T01:58:12.834Z,11.55
2023-05-02T01:58:45.504Z,11.57
2023-05-02T01:59:18.215Z,11.55
2023-05-02T01:59:49.325Z,11.54
2023-05-02T02:00:21.992Z,11.54
2023-05-02T02:00:54.670Z,11.51
2023-05-02T02:01:27.389Z,11.51
2023-05-02T02:02:00.149Z,11.51
2023-05-02T02:02:32.810Z,11.49
2023-05-02T02:03:05.490Z,11.46
2023-05-02T02:03:38.223Z,11.47
2023-05-02T02:04:10.947Z,11.46
2023-05-02T02:04:43.687Z,11.44
2023-05-02T02:05:16.421Z,11.46
2023-05-02T02:05:49.092Z,11.46
2023-05-02T02:06:21.813Z,11.43
2023-05-02T02:06:54.518Z,11.43
2023-05-02T02:07:27.204Z,11.40
2023-05-02T02:07:59.883Z,11.40
2023-05-02T02:08:32.562Z,11.40
2023-05-02T02:09:05.215Z,11.39
2023-05-02T02:09:37.900Z,11.37
2023-05-02T02:10:10.576Z,11.36
2023-05-02T02:10:43.262Z,11.37
2023-05-02T02:11:15.915Z,11.39
2023-05-02T02:11:48.576Z,11.36
2023-05-02T02:12:21.241Z,11.36
2023-05-02T02:12:53.901Z,11.35
2023-05-02T02:13:26.566Z,11.35
2023-05-02T02:13:59.235Z,11.33
2023-05-02T02:14:31.898Z,11.33
2023-05-02T02:15:04.582Z,11.33
2023-05-02T02:15:37.263Z,11.29
2023-05-02T02:16:09.982Z,11.32
2023-05-02T02:16:42.707Z,11.29
2023-05-02T02:17:15.390Z,11.32
2023-05-02T02:17:48.109Z,11.29
2023-05-02T02:18:20.787Z,11.27
2023-05-02T02:18:53.458Z,11.27
2023-05-02T02:19:26.167Z,11.28
2023-05-02T02:19:59.260Z,11.28
2023-05-02T02:20:25.664Z,11.27
2023-05-02T02:20:58.328Z,11.25
2023-05-02T02:21:31.002Z,11.27
2023-05-02T02:22:03.674Z,11.24
2023-05-02T02:22:36.374Z,11.22
2023-05-02T02:23:09.056Z,11.22
2023-05-02T02:23:41.732Z,11.21
2023-05-02T02:24:14.450Z,11.19
2023-05-02T02:24:47.118Z,11.18
2023-05-02T02:25:19.792Z,11.18
2023-05-02T02:25:52.457Z,11.17
2023-05-02T02:26:25.128Z,11.15
2023-05-02T02:26:57.794Z,11.14
2023-05-02T02:27:30.469Z,11.11
2023-05-02T02:28:03.154Z,11.11
2023-05-02T02:28:35.819Z,11.10
2023-05-02T02:29:08.484Z,11.07
2023-05-02T02:29:41.162Z,11.04
2023-05-02T02:30:13.860Z,11.03
2023-05-02T02:30:46.680Z,11.02
2023-05-02T02:31:19.400Z,11.02
2023-05-02T02:31:52.059Z,11.00
2023-05-02T02:32:24.790Z,10.99
2023-05-02T02:32:57.625Z,10.96
2023-05-02T02:33:30.398Z,10.96
2023-05-02T02:34:03.058Z,10.94
2023-05-02T02:34:35.730Z,10.91
2023-05-02T02:35:08.431Z,10.91
2023-05-02T02:35:41.112Z,10.89
2023-05-02T02:36:13.785Z,10.89
2023-05-02T02:36:46.448Z,10.89
2023-05-02T02:37:19.143Z,10.88
2023-05-02T02:37:51.789Z,10.88
2023-05-02T02:38:24.468Z,10.85
2023-05-02T02:38:57.121Z,10.88
2023-05-02T02:39:29.800Z,10.85
2023-05-02T02:40:02.719Z,10.85
2023-05-02T02:40:29.050Z,10.84
2023-05-02T02:41:01.724Z,10.82
2023-05-02T02:41:34.405Z,10.82
2023-05-02T02:42:07.051Z,10.79
2023-05-02T02:42:39.739Z,10.79
2023-05-02T02:43:12.422Z,10.79
2023-05-02T02:43:45.097Z,10.76
2023-05-02T02:44:17.763Z,10.76
2023-05-02T02:44:50.461Z,10.74
2023-05-02T02:45:23.151Z,10.71
2023-05-02T02:45:55.823Z,10.71
2023-05-02T02:46:28.616Z,10.71
2023-05-02T02:47:01.278Z,10.68
2023-05-02T02:47:34.030Z,10.67
2023-05-02T02:48:06.751Z,10.67
2023-05-02T02:48:39.405Z,10.67
2023-05-02T02:49:12.079Z,10.64
2023-05-02T02:49:44.767Z,10.64
2023-05-02T02:50:17.511Z,10.63
2023-05-02T02:50:50.134Z,10.61
2023-05-02T02:51:22.805Z,10.61
2023-05-02T02:51:55.468Z,10.60
2023-05-02T02:52:28.134Z,10.56
2023-05-02T02:53:00.806Z,10.56
2023-05-02T02:53:33.461Z,10.53
2023-05-02T02:54:15.485Z,10.52
2023-05-02T02:54:38.238Z,10.47
2023-05-02T02:55:04.423Z,10.47
2023-05-02T02:55:31.175Z,10.47
2023-05-02T02:56:03.876Z,10.42
2023-05-02T02:56:36.553Z,10.42
2023-05-02T02:57:09.193Z,10.42
2023-05-02T02:57:41.867Z,10.40
2023-05-02T02:58:14.534Z,10.38
2023-05-02T02:58:47.216Z,10.40
2023-05-02T02:59:19.879Z,10.36
2023-05-02T02:59:52.553Z,10.34
2023-05-02T03:00:25.246Z,10.34
2023-05-02T03:00:57.936Z,10.32
2023-05-02T03:01:30.668Z,10.32
2023-05-02T03:02:03.382Z,10.34
2023-05-02T03:02:36.116Z,10.30
2023-05-02T03:03:08.861Z,10.30
2023-05-02T03:03:41.684Z,10.30
2023-05-02T03:04:14.514Z,10.30
2023-05-02T03:04:47.231Z,10.27
2023-05-02T03:05:19.885Z,10.27
2023-05-02T03:05:52.554Z,10.27
2023-05-02T03:06:25.352Z,10.26
2023-05-02T03:06:58.023Z,10.25
2023-05-02T03:07:30.684Z,10.23
2023-05-02T03:08:03.355Z,10.22
2023-05-02T03:08:36.018Z,10.22
2023-05-02T03:09:08.687Z,10.22
2023-05-02T03:09:41.348Z,10.20
2023-05-02T03:10:14.043Z,10.18
2023-05-02T03:10:46.697Z,10.18
2023-05-02T03:11:19.383Z,10.15
2023-05-02T03:11:52.044Z,10.15
2023-05-02T03:12:24.708Z,10.14
2023-05-02T03:12:57.393Z,10.12
2023-05-02T03:13:30.053Z,10.11
2023-05-02T03:14:02.750Z,10.08
2023-05-02T03:14:33.806Z,10.07
2023-05-02T03:15:06.489Z,10.05
2023-05-02T03:15:39.206Z,10.05
2023-05-02T03:16:11.923Z,10.05
2023-05-02T03:16:44.744Z,10.08
2023-05-02T03:17:17.468Z,10.02
2023-05-02T03:17:50.187Z,10.01
2023-05-02T03:18:22.854Z,10.02
2023-05-02T03:18:55.545Z,10.02
2023-05-02T03:19:28.206Z,9.99
2023-05-02T03:20:01.072Z,10.01
2023-05-02T03:20:27.436Z,10.01
2023-05-02T03:21:00.090Z,9.99
2023-05-02T03:21:32.765Z,10.01
2023-05-02T03:22:05.455Z,10.01
2023-05-02T03:22:38.120Z,10.01
2023-05-02T03:23:10.785Z,9.99
2023-05-02T03:23:43.465Z,9.99
2023-05-02T03:24:18.433Z,10.01
2023-05-02T03:24:45.238Z,9.97
2023-05-02T03:25:17.905Z,10.01
2023-05-02T03:25:50.738Z,9.99
2023-05-02T03:26:23.395Z,9.99
2023-05-02T03:26:56.070Z,9.97
2023-05-02T03:27:28.736Z,9.99
2023-05-02T03:28:01.397Z,9.97
2023-05-02T03:28:34.052Z,9.97
2023-05-02T03:29:06.729Z,9.96
2023-05-02T03:29:39.400Z,9.96
2023-05-02T03:30:12.074Z,9.96
2023-05-02T03:30:44.742Z,9.93
2023-05-02T03:31:17.450Z,9.93
2023-05-02T03:31:50.240Z,9.91
2023-05-02T03:32:22.916Z,9.90
2023-05-02T03:32:55.686Z,9.90
2023-05-02T03:33:28.345Z,9.90
2023-05-02T03:33:59.471Z,9.89
2023-05-02T03:34:32.116Z,9.89
2023-05-02T03:35:04.806Z,9.89
2023-05-02T03:35:37.484Z,9.87
2023-05-02T03:36:10.166Z,9.87
2023-05-02T03:36:42.846Z,9.86
2023-05-02T03:37:15.509Z,9.84
2023-05-02T03:37:48.174Z,9.84
2023-05-02T03:38:20.831Z,9.84
2023-05-02T03:38:53.512Z,9.83
2023-05-02T03:39:26.172Z,9.83
2023-05-02T03:39:59.013Z,9.83
2023-05-02T03:40:31.745Z,9.81
2023-05-02T03:41:04.419Z,9.81
2023-05-02T03:41:37.083Z,9.83
2023-05-02T03:42:09.757Z,9.81
2023-05-02T03:42:42.419Z,9.79
2023-05-02T03:43:15.103Z,9.79
2023-05-02T03:43:47.753Z,9.81
2023-05-02T03:44:20.427Z,9.81
2023-05-02T03:44:53.123Z,9.81
2023-05-02T03:45:25.766Z,9.81
2023-05-02T03:45:58.434Z,9.84
2023-05-02T03:46:31.144Z,9.83
2023-05-02T03:47:03.908Z,9.81
2023-05-02T03:47:36.618Z,9.81
2023-05-02T03:48:09.445Z,9.81
2023-05-02T03:48:42.158Z,9.81
2023-05-02T03:49:14.805Z,9.79
2023-05-02T03:49:47.472Z,9.81
2023-05-02T03:50:20.153Z,9.81
2023-05-02T03:50:52.813Z,9.81
2023-05-02T03:51:25.485Z,9.81
2023-05-02T03:51:58.145Z,9.81
2023-05-02T03:52:30.814Z,9.83
2023-05-02T03:53:03.485Z,9.83
2023-05-02T03:53:36.157Z,9.79
2023-05-02T03:54:08.829Z,9.79
2023-05-02T03:54:41.527Z,9.79
2023-05-02T03:55:14.243Z,9.79
2023-05-02T03:55:46.909Z,9.78
2023-05-02T03:56:19.564Z,9.79
2023-05-02T03:56:52.231Z,9.81
2023-05-02T03:57:24.906Z,9.79
2023-05-02T03:57:57.577Z,9.78
2023-05-02T03:58:30.239Z,9.78
2023-05-02T03:59:02.913Z,9.76
2023-05-02T03:59:35.593Z,9.75
2023-05-02T04:00:08.271Z,9.75
2023-05-02T04:00:40.934Z,9.74
2023-05-02T04:01:13.607Z,9.74
2023-05-02T04:01:46.281Z,9.71
2023-05-02T04:02:18.964Z,9.72
2023-05-02T04:02:51.729Z,9.71
2023-05-02T04:03:24.580Z,9.71
2023-05-02T04:03:50.932Z,9.72
2023-05-02T04:04:23.641Z,9.71
2023-05-02T04:04:56.318Z,9.71
2023-05-02T04:05:28.992Z,9.71
2023-05-02T04:06:01.688Z,9.69
2023-05-02T04:06:34.385Z,9.69
2023-05-02T04:07:07.089Z,9.68
2023-05-02T04:07:39.786Z,9.68
2023-05-02T04:08:12.459Z,9.66
2023-05-02T04:08:45.127Z,9.65
2023-05-02T04:09:17.788Z,9.66
2023-05-02T04:09:50.481Z,9.66
2023-05-02T04:10:23.156Z,9.65
2023-05-02T04:10:55.816Z,9.65
2023-05-02T04:11:28.535Z,9.65
2023-05-02T04:12:01.189Z,9.64
2023-05-02T04:12:33.879Z,9.64
2023-05-02T04:13:06.581Z,9.61
2023-05-02T04:13:37.659Z,9.61
2023-05-02T04:14:10.327Z,9.61
2023-05-02T04:14:43.024Z,9.64
2023-05-02T04:15:15.734Z,9.61
2023-05-02T04:15:48.446Z,9.61
2023-05-02T04:16:21.119Z,9.61
2023-05-02T04:16:53.850Z,9.61
2023-05-02T04:17:26.613Z,9.58
2023-05-02T04:17:59.388Z,9.60
2023-05-02T04:18:32.064Z,9.61
2023-05-02T04:19:04.702Z,9.60
2023-05-02T04:19:37.383Z,9.60
2023-05-02T04:20:10.057Z,9.60
2023-05-02T04:20:42.709Z,9.58
2023-05-02T04:21:15.386Z,9.58
2023-05-02T04:21:48.060Z,9.57
2023-05-02T04:22:20.728Z,9.57
2023-05-02T04:22:53.395Z,9.58
2023-05-02T04:23:26.297Z,9.57
2023-05-02T04:23:58.971Z,9.57
2023-05-02T04:24:31.639Z,9.57
2023-05-02T04:25:04.328Z,9.57
2023-05-02T04:25:36.999Z,9.56
2023-05-02T04:26:08.076Z,9.57
2023-05-02T04:26:40.745Z,9.57
2023-05-02T04:27:15.295Z,9.57
2023-05-02T04:27:41.705Z,9.58
2023-05-02T04:28:14.365Z,9.58
2023-05-02T04:28:47.039Z,9.57
2023-05-02T04:29:19.720Z,9.60
2023-05-02T04:29:52.398Z,9.58
2023-05-02T04:30:25.078Z,9.58
2023-05-02T04:30:57.903Z,9.60
2023-05-02T04:31:30.727Z,9.58
2023-05-02T04:32:03.399Z,9.60
2023-05-02T04:32:36.146Z,9.60
2023-05-02T04:33:08.885Z,9.60
2023-05-02T04:33:41.562Z,9.58
2023-05-02T04:34:14.202Z,9.60
2023-05-02T04:34:46.895Z,9.60
2023-05-02T04:35:19.557Z,9.60
2023-05-02T04:35:52.238Z,9.58
2023-05-02T04:36:24.897Z,9.61
2023-05-02T04:36:57.564Z,9.61
2023-05-02T04:37:30.239Z,9.64
2023-05-02T04:38:02.904Z,9.64
2023-05-02T04:38:35.619Z,9.65
2023-05-02T04:39:08.299Z,9.66
2023-05-02T04:39:40.939Z,9.65
2023-05-02T04:40:13.640Z,9.68
2023-05-02T04:40:46.326Z,9.68
2023-05-02T04:41:18.976Z,9.68
2023-05-02T04:41:51.649Z,9.71
2023-05-02T04:42:24.320Z,9.71
2023-05-02T04:42:56.974Z,9.72
2023-05-02T04:43:29.645Z,9.74
2023-05-02T04:44:02.332Z,9.76
2023-05-02T04:44:35.029Z,9.78
2023-05-02T04:45:07.705Z,9.78
2023-05-02T04:45:38.783Z,9.78
2023-05-02T04:46:11.487Z,9.79
2023-05-02T04:46:44.206Z,9.81
2023-05-02T04:47:16.855Z,9.83
2023-05-02T04:47:49.590Z,9.86
2023-05-02T04:48:20.607Z,9.86
2023-05-02T04:48:53.340Z,9.87
2023-05-02T04:49:25.989Z,9.86
2023-05-02T04:49:58.916Z,9.87
2023-05-02T04:50:25.222Z,9.90
2023-05-02T04:50:57.896Z,9.90
2023-05-02T04:51:30.590Z,9.91
2023-05-02T04:52:03.258Z,9.91
2023-05-02T04:52:35.917Z,9.94
2023-05-02T04:53:08.597Z,9.94
2023-05-02T04:53:41.255Z,9.97
2023-05-02T04:54:13.932Z,9.96
2023-05-02T04:54:46.592Z,9.96
2023-05-02T04:55:19.265Z,9.97
2023-05-02T04:55:51.934Z,9.99
2023-05-02T04:56:24.622Z,10.01
2023-05-02T04:56:57.284Z,10.02
2023-05-02T04:57:29.959Z,10.02
2023-05-02T04:58:02.626Z,10.04
2023-05-02T04:58:35.313Z,10.05
2023-05-02T04:59:07.971Z,10.04
2023-05-02T04:59:40.687Z,10.05
2023-05-02T05:00:13.338Z,10.07
2023-05-02T05:00:46.025Z,10.07
2023-05-02T05:01:18.768Z,10.07
2023-05-02T05:01:51.485Z,10.07
2023-05-02T05:02:24.183Z,10.08
2023-05-02T05:02:58.487Z,10.09
2023-05-02T05:03:25.529Z,10.09
2023-05-02T05:03:56.718Z,10.11
2023-05-02T05:04:23.124Z,10.12
2023-05-02T05:04:55.858Z,10.12
2023-05-02T05:05:28.666Z,10.15
2023-05-02T05:06:01.365Z,10.15
2023-05-02T05:06:34.053Z,10.15
2023-05-02T05:07:06.734Z,10.15
2023-05-02T05:07:39.411Z,10.17
2023-05-02T05:08:12.074Z,10.20
2023-05-02T05:08:44.756Z,10.18
2023-05-02T05:09:17.434Z,10.20
2023-05-02T05:09:48.531Z,10.18
2023-05-02T05:10:21.218Z,10.20
2023-05-02T05:10:53.892Z,10.20
2023-05-02T05:11:26.568Z,10.22
2023-05-02T05:11:59.217Z,10.20
2023-05-02T05:12:31.885Z,10.22
2023-05-02T05:13:04.550Z,10.22
2023-05-02T05:13:37.216Z,10.23
2023-05-02T05:14:09.890Z,10.25
2023-05-02T05:14:42.554Z,10.25
2023-05-02T05:15:15.232Z,10.25
2023-05-02T05:15:47.942Z,10.26
2023-05-02T05:16:20.640Z,10.29
2023-05-02T05:16:53.321Z,10.30
2023-05-02T05:17:26.053Z,10.30
2023-05-02T05:17:58.853Z,10.33
2023-05-02T05:18:31.565Z,10.34
2023-05-02T05:19:04.375Z,10.34
2023-05-02T05:19:37.141Z,10.36
2023-05-02T05:20:09.839Z,10.38
2023-05-02T05:20:42.492Z,10.41
2023-05-02T05:21:15.174Z,10.42
2023-05-02T05:21:47.838Z,10.42
2023-05-02T05:22:20.490Z,10.42
2023-05-02T05:22:53.166Z,10.44
2023-05-02T05:23:25.832Z,10.47
2023-05-02T05:23:58.492Z,10.47
2023-05-02T05:24:31.204Z,10.47
2023-05-02T05:25:03.966Z,10.45
2023-05-02T05:25:36.660Z,10.48
2023-05-02T05:26:09.342Z,10.51
2023-05-02T05:26:42.015Z,10.52
2023-05-02T05:27:14.683Z,10.52
2023-05-02T05:27:47.352Z,10.55
2023-05-02T05:28:20.028Z,10.55
2023-05-02T05:28:52.698Z,10.56
2023-05-02T05:29:25.390Z,10.59
2023-05-02T05:29:58.228Z,10.60
2023-05-02T05:30:31.023Z,10.60
2023-05-02T05:31:03.707Z,10.63
2023-05-02T05:31:36.417Z,10.63
2023-05-02T05:32:09.159Z,10.64
2023-05-02T05:32:41.874Z,10.67
2023-05-02T05:33:14.622Z,10.67
2023-05-02T05:33:47.384Z,10.66
2023-05-02T05:34:20.093Z,10.68
2023-05-02T05:34:52.748Z,10.67
2023-05-02T05:35:25.396Z,10.70
2023-05-02T05:35:58.067Z,10.68
2023-05-02T05:36:30.753Z,10.70
2023-05-02T05:37:03.916Z,10.71
2023-05-02T05:37:30.549Z,10.70
2023-05-02T05:38:03.232Z,10.71
2023-05-02T05:38:35.883Z,10.73
2023-05-02T05:39:08.560Z,10.73
2023-05-02T05:39:41.230Z,10.74
2023-05-02T05:40:13.909Z,10.76
2023-05-02T05:40:46.586Z,10.76
2023-05-02T05:41:19.244Z,10.79
2023-05-02T05:41:51.933Z,10.81
2023-05-02T05:42:24.613Z,10.82
2023-05-02T05:42:57.298Z,10.84
2023-05-02T05:43:29.978Z,10.85
2023-05-02T05:44:02.635Z,10.85
2023-05-02T05:44:35.316Z,10.86
2023-05-02T05:45:07.999Z,10.88
2023-05-02T05:45:40.669Z,10.89
2023-05-02T05:46:13.337Z,10.92
2023-05-02T05:46:46.090Z,10.94
2023-05-02T05:47:18.831Z,10.99
2023-05-02T05:47:51.503Z,10.97
2023-05-02T05:48:24.221Z,10.99
2023-05-02T05:48:56.891Z,11.02
2023-05-02T05:49:29.600Z,11.03
2023-05-02T05:50:02.550Z,11.03
2023-05-02T05:50:28.961Z,11.04
2023-05-02T05:51:01.632Z,11.04
2023-05-02T05:51:34.305Z,11.07
2023-05-02T05:52:06.993Z,11.09
2023-05-02T05:52:39.657Z,11.11
2023-05-02T05:53:12.332Z,11.14
2023-05-02T05:53:44.997Z,11.14
2023-05-02T05:54:17.675Z,11.15
2023-05-02T05:54:50.331Z,11.17
2023-05-02T05:55:22.998Z,11.19
2023-05-02T05:55:55.669Z,11.22
2023-05-02T05:56:28.326Z,11.24
2023-05-02T05:57:01.030Z,11.24
2023-05-02T05:57:33.705Z,11.27
2023-05-02T05:58:06.362Z,11.29
2023-05-02T05:58:39.037Z,11.33
2023-05-02T05:59:11.722Z,11.35
2023-05-02T05:59:44.394Z,11.37
2023-05-02T06:00:17.041Z,11.39
2023-05-02T06:00:49.734Z,11.40
2023-05-02T06:01:22.380Z,11.42
2023-05-02T06:01:55.052Z,11.43
2023-05-02T06:02:27.834Z,11.44
2023-05-02T06:03:00.645Z,11.46
2023-05-02T06:03:33.510Z,11.49
2023-05-02T06:03:59.899Z,11.52
2023-05-02T06:04:32.710Z,11.54
2023-05-02T06:05:05.474Z,11.54
2023-05-02T06:05:38.166Z,11.55
2023-05-02T06:06:10.860Z,11.58
2023-05-02T06:06:43.560Z,11.57
2023-05-02T06:07:16.227Z,11.57
2023-05-02T06:07:48.910Z,11.55
2023-05-02T06:08:21.587Z,11.57
2023-05-02T06:08:54.269Z,11.58
2023-05-02T06:09:26.951Z,11.60
2023-05-02T06:09:59.969Z,11.64
2023-05-02T06:10:26.293Z,11.65
2023-05-02T06:10:58.969Z,11.70
2023-05-02T06:11:31.616Z,11.72
2023-05-02T06:12:04.309Z,11.75
2023-05-02T06:12:36.966Z,11.76
2023-05-02T06:13:09.635Z,11.78
2023-05-02T06:13:42.302Z,11.79
2023-05-02T06:14:14.984Z,11.83
2023-05-02T06:14:47.622Z,11.86
2023-05-02T06:15:20.289Z,11.86
2023-05-02T06:15:53.003Z,11.88
2023-05-02T06:16:25.711Z,11.88
2023-05-02T06:16:58.353Z,11.91
2023-05-02T06:17:31.048Z,11.95
2023-05-02T06:18:03.797Z,11.95
2023-05-02T06:18:36.542Z,11.98
2023-05-02T06:19:09.208Z,12.02
2023-05-02T06:19:41.898Z,12.04
2023-05-02T06:20:15.639Z,12.05
2023-05-02T06:20:42.717Z,12.10
2023-05-02T06:21:15.379Z,12.12
2023-05-02T06:21:48.033Z,12.10
2023-05-02T06:22:20.724Z,12.10
2023-05-02T06:22:53.376Z,12.13
2023-05-02T06:23:26.046Z,12.14
2023-05-02T06:23:58.714Z,12.17
2023-05-02T06:24:31.393Z,12.13
2023-05-02T06:25:04.059Z,12.12
2023-05-02T06:25:36.719Z,12.10
2023-05-02T06:26:09.387Z,12.10
2023-05-02T06:26:42.064Z,12.10
2023-05-02T06:27:14.753Z,12.10
2023-05-02T06:27:47.463Z,12.12
2023-05-02T06:28:20.133Z,12.12
2023-05-02T06:28:52.802Z,12.16
2023-05-02T06:29:25.472Z,12.20
2023-05-02T06:29:58.438Z,12.23
2023-05-02T06:30:24.782Z,12.28
2023-05-02T06:30:57.433Z,12.34
2023-05-02T06:31:30.139Z,12.39
2023-05-02T06:32:02.844Z,12.46
2023-05-02T06:32:35.582Z,12.53
2023-05-02T06:33:08.286Z,12.53
2023-05-02T06:33:40.974Z,12.52
2023-05-02T06:34:13.650Z,12.49
2023-05-02T06:34:46.344Z,12.53
2023-05-02T06:35:18.975Z,12.53
2023-05-02T06:35:51.642Z,12.53
2023-05-02T06:36:24.306Z,12.53
2023-05-02T06:36:56.990Z,12.42
2023-05-02T06:37:29.647Z,12.34
2023-05-02T06:38:02.331Z,12.34
2023-05-02T06:38:35.016Z,12.34
2023-05-02T06:39:07.687Z,12.32
2023-05-02T06:39:40.358Z,12.34
2023-05-02T06:40:13.053Z,12.32
2023-05-02T06:40:45.733Z,12.35
2023-05-02T06:41:18.535Z,12.35
2023-05-02T06:41:51.222Z,12.35
2023-05-02T06:42:23.891Z,12.38
2023-05-02T06:42:56.586Z,12.46
2023-05-02T06:43:29.269Z,12.54
2023-05-02T06:44:01.940Z,12.60
2023-05-02T06:44:34.610Z,12.65
2023-05-02T06:45:07.267Z,12.68
2023-05-02T06:45:39.936Z,12.64
2023-05-02T06:46:12.610Z,12.59
2023-05-02T06:46:45.328Z,12.56
2023-05-02T06:47:18.035Z,12.59
2023-05-02T06:47:50.748Z,12.62
2023-05-02T06:48:23.458Z,12.59
2023-05-02T06:48:56.137Z,12.53
2023-05-02T06:49:28.812Z,12.57
2023-05-02T06:50:01.730Z,12.65
2023-05-02T06:50:28.184Z,12.70
2023-05-02T06:51:00.855Z,12.71
2023-05-02T06:51:33.506Z,12.72
2023-05-02T06:52:06.174Z,12.75
2023-05-02T06:52:38.865Z,12.82
2023-05-02T06:53:11.538Z,12.82
2023-05-02T06:53:44.219Z,12.75
2023-05-02T06:54:16.881Z,12.64
2023-05-02T06:54:49.544Z,12.68
2023-05-02T06:55:22.213Z,12.72
2023-05-02T06:55:54.886Z,12.72
2023-05-02T06:56:27.560Z,12.71
2023-05-02T06:57:00.214Z,12.71
2023-05-02T06:57:32.904Z,12.71
2023-05-02T06:58:05.576Z,12.77
2023-05-02T06:58:38.267Z,12.79
2023-05-02T06:59:10.944Z,12.87
2023-05-02T06:59:43.621Z,12.96
2023-05-02T07:00:16.295Z,13.04
2023-05-02T07:00:49.096Z,13.12
2023-05-02T07:01:21.750Z,13.22
2023-05-02T07:01:54.408Z,13.25